Time;durP1;ratioP1;P1;durP2;ratioP2;P2;SDS_P1;SDS_P2;PMS_P1;PMS_P2;Temp;Humidity;BMP_temperature;BMP_pressure;BME280_temperature;BME280_humidity;BME280_pressure;Samples;Min_cycle;Max_cycle;Signal;HPM_P1;HPM_P2
2022/10/13 00:01:11;;;;;;;1999.90;999.90;;;14.10;99.90;;;;;;5036232;28;20063;-76
2022/10/13 00:03:41;;;;;;;1999.90;999.90;;;14.10;99.90;;;;;;5037420;28;20488;-84
2022/10/13 00:06:09;;;;;;;1999.90;999.90;;;14.00;99.90;;;;;;5035485;28;20025;-85
2022/10/13 00:08:36;;;;;;;1999.90;999.90;;;14.00;99.90;;;;;;5026833;28;20485;-84
2022/10/13 00:11:09;;;;;;;1999.90;999.90;;;13.90;99.90;;;;;;5016455;28;20424;-85
2022/10/13 00:13:34;;;;;;;1999.90;999.90;;;13.90;99.90;;;;;;5013253;28;20105;-85
2022/10/13 00:16:02;;;;;;;1999.90;999.90;;;13.90;99.90;;;;;;5016223;28;20113;-84
2022/10/13 00:18:27;;;;;;;1999.90;999.90;;;13.80;99.90;;;;;;5022528;28;20053;-77
2022/10/13 00:20:53;;;;;;;1999.90;999.90;;;13.80;99.90;;;;;;5034883;28;20092;-84
2022/10/13 00:23:19;;;;;;;1999.90;999.90;;;13.80;99.90;;;;;;5036770;28;20147;-77
2022/10/13 00:25:49;;;;;;;1999.90;999.90;;;13.90;99.90;;;;;;5036797;28;20113;-77
2022/10/13 00:28:16;;;;;;;1999.90;999.90;;;13.80;99.90;;;;;;5034959;28;20018;-76
2022/10/13 00:30:42;;;;;;;1999.90;999.90;;;13.80;99.90;;;;;;5025052;28;20041;-84
2022/10/13 00:33:10;;;;;;;1999.90;999.90;;;13.80;99.90;;;;;;5015489;28;20034;-77
2022/10/13 00:35:44;;;;;;;1999.90;999.90;;;13.80;99.90;;;;;;5016373;28;20432;-84
2022/10/13 00:38:11;;;;;;;1999.90;999.90;;;13.80;99.90;;;;;;4999193;28;20057;-84
2022/10/13 00:40:45;;;;;;;1999.90;999.90;;;13.80;99.90;;;;;;5033880;28;20528;-84
2022/10/13 00:43:37;;;;;;;1999.90;999.90;;;13.80;99.90;;;;;;5035576;28;20072;-77
2022/10/13 00:46:02;;;;;;;1999.90;999.90;;;13.80;99.90;;;;;;5037425;28;20025;-77
2022/10/13 00:48:29;;;;;;;1999.90;999.90;;;13.80;99.90;;;;;;5034861;28;20033;-77
2022/10/13 00:50:57;;;;;;;1999.90;999.90;;;13.90;99.90;;;;;;5017072;28;20447;-76
2022/10/13 00:53:26;;;;;;;1999.90;999.90;;;13.80;99.90;;;;;;5034565;28;20049;-85
2022/10/13 00:55:52;;;;;;;1999.90;999.90;;;13.80;99.90;;;;;;5016489;28;20112;-77
2022/10/13 00:58:21;;;;;;;1999.90;999.90;;;13.90;99.90;;;;;;5017105;28;20049;-76
2022/10/13 01:00:49;;;;;;;1999.90;999.90;;;13.80;99.90;;;;;;5035422;28;20068;-85
2022/10/13 01:03:17;;;;;;;1999.90;999.90;;;13.80;99.90;;;;;;5035232;28;20029;-84
2022/10/13 01:05:43;;;;;;;1999.90;999.90;;;13.80;99.90;;;;;;5016755;28;20025;-84
2022/10/13 01:08:10;;;;;;;1999.90;999.90;;;13.80;99.90;;;;;;5016812;28;20083;-76
2022/10/13 01:10:51;;;;;;;1999.90;999.90;;;13.80;99.90;;;;;;5034954;28;20013;-76
2022/10/13 01:13:27;;;;;;;1999.90;999.90;;;13.90;99.90;;;;;;5019418;28;20030;-77
2022/10/13 01:16:15;;;;;;;1999.90;999.90;;;13.90;99.90;;;;;;4998226;28;20026;-85
2022/10/13 01:19:06;;;;;;;1999.90;999.90;;;13.90;99.90;;;;;;5023274;28;20033;-84
2022/10/13 01:21:40;;;;;;;1999.90;999.90;;;13.90;99.90;;;;;;5033315;28;20032;-76
2022/10/13 01:24:46;;;;;;;1999.90;999.90;;;13.90;99.90;;;;;;5034295;28;20025;-77
2022/10/13 01:27:35;;;;;;;1999.90;999.90;;;13.90;99.90;;;;;;4996846;28;20457;-84
2022/10/13 01:30:13;;;;;;;1999.90;999.90;;;13.80;99.90;;;;;;5035103;28;20077;-76
2022/10/13 01:33:02;;;;;;;1999.90;999.90;;;13.80;99.90;;;;;;5034050;28;20053;-84
2022/10/13 01:35:45;;;;;;;1999.90;999.90;;;13.70;99.90;;;;;;5032763;28;20436;-77
2022/10/13 01:38:29;;;;;;;1999.90;999.90;;;13.80;99.90;;;;;;5033773;28;20112;-77
2022/10/13 01:41:07;;;;;;;1999.90;999.90;;;13.80;99.90;;;;;;5035105;28;20124;-77
2022/10/13 01:43:45;;;;;;;1999.90;999.90;;;13.80;99.90;;;;;;5033950;28;20403;-85
2022/10/13 01:46:29;;;;;;;1999.90;999.90;;;13.80;99.90;;;;;;5034257;28;20032;-84
2022/10/13 01:48:58;;;;;;;1999.90;999.90;;;13.80;99.90;;;;;;5031971;28;20033;-84
2022/10/13 01:51:28;;;;;;;1999.90;999.90;;;13.90;99.90;;;;;;5034266;28;20033;-84
2022/10/13 01:53:53;;;;;;;1999.90;999.90;;;13.90;99.90;;;;;;5034618;28;20399;-84
2022/10/13 01:56:19;;;;;;;1999.90;999.90;;;14.00;99.90;;;;;;5033518;28;20020;-84
2022/10/13 01:58:46;;;;;;;1999.90;999.90;;;14.00;99.90;;;;;;5034468;28;20060;-84
2022/10/13 02:01:31;;;;;;;1999.90;999.90;;;14.00;99.90;;;;;;5033476;28;20404;-77
2022/10/13 02:04:20;;;;;;;1999.90;999.90;;;14.10;99.90;;;;;;5033881;28;20104;-76
2022/10/13 02:07:02;;;;;;;1999.90;999.90;;;14.10;99.90;;;;;;5033549;28;20395;-84
2022/10/13 02:09:59;;;;;;;1999.90;999.90;;;14.10;99.90;;;;;;5031482;28;20365;-76
2022/10/13 02:12:52;;;;;;;1999.90;999.90;;;14.10;99.90;;;;;;5025086;28;20086;-84
2022/10/13 02:15:26;;;;;;;1999.90;999.90;;;14.10;99.90;;;;;;5013123;28;20022;-77
2022/10/13 02:17:53;;;;;;;1999.90;999.90;;;14.10;99.90;;;;;;5016405;28;20268;-85
2022/10/13 02:20:19;;;;;;;1999.90;999.90;;;14.00;99.90;;;;;;5033370;28;20083;-85
2022/10/13 02:22:49;;;;;;;1999.90;999.90;;;14.10;99.90;;;;;;5033117;28;20125;-84
2022/10/13 02:25:15;;;;;;;1999.90;999.90;;;14.00;99.90;;;;;;5033357;28;20052;-77
2022/10/13 02:27:41;;;;;;;1999.90;999.90;;;14.00;99.90;;;;;;5015126;28;20022;-85
2022/10/13 02:30:07;;;;;;;1999.90;999.90;;;14.00;99.90;;;;;;5015244;28;20047;-85
2022/10/13 02:32:33;;;;;;;1999.90;999.90;;;14.00;99.90;;;;;;5015144;28;20393;-76
2022/10/13 02:34:59;;;;;;;1999.90;999.90;;;14.00;99.90;;;;;;5032372;28;20033;-85
2022/10/13 02:37:24;;;;;;;1999.90;999.90;;;13.90;99.90;;;;;;5033204;28;20029;-84
2022/10/13 02:39:51;;;;;;;1999.90;999.90;;;13.90;99.90;;;;;;5033200;28;20017;-77
2022/10/13 02:42:16;;;;;;;1999.90;999.90;;;13.80;99.90;;;;;;5033502;28;20036;-84
2022/10/13 02:44:42;;;;;;;1999.90;999.90;;;13.80;99.90;;;;;;5034005;28;20030;-85
2022/10/13 02:47:07;;;;;;;1999.90;999.90;;;13.70;99.90;;;;;;5033589;28;20056;-84
2022/10/13 02:49:33;;;;;;;1999.90;999.90;;;13.80;99.90;;;;;;5018749;28;20112;-77
2022/10/13 02:51:59;;;;;;;1999.90;999.90;;;13.70;99.90;;;;;;5033048;28;20109;-76
2022/10/13 02:54:24;;;;;;;1999.90;999.90;;;13.80;99.90;;;;;;5032905;28;20516;-76
2022/10/13 02:56:50;;;;;;;1999.90;999.90;;;13.80;99.90;;;;;;5014900;28;20028;-77
2022/10/13 02:59:16;;;;;;;1999.90;999.90;;;13.80;99.90;;;;;;5034031;28;20076;-84
2022/10/13 03:01:43;;;;;;;1999.90;999.90;;;13.80;99.90;;;;;;5033242;28;20018;-85
2022/10/13 03:04:09;;;;;;;1999.90;999.90;;;13.90;99.90;;;;;;5015980;28;20032;-84
2022/10/13 03:06:35;;;;;;;1999.90;999.90;;;13.90;99.90;;;;;;5032685;28;20083;-84
2022/10/13 03:09:00;;;;;;;1999.90;999.90;;;13.90;99.90;;;;;;5014868;28;20725;-84
2022/10/13 03:11:26;;;;;;;1999.90;999.90;;;13.90;99.90;;;;;;5033556;28;20026;-85
2022/10/13 03:13:52;;;;;;;1999.90;999.90;;;13.90;99.90;;;;;;5013449;28;20069;-77
2022/10/13 03:16:17;;;;;;;1999.90;999.90;;;14.00;99.90;;;;;;4995774;28;20033;-84
2022/10/13 03:18:43;;;;;;;1999.90;999.90;;;14.00;99.90;;;;;;5004905;28;20395;-76
2022/10/13 03:21:09;;;;;;;1999.90;999.90;;;14.10;99.90;;;;;;5031785;28;20044;-77
2022/10/13 03:23:35;;;;;;;1999.90;999.90;;;14.10;99.90;;;;;;5031881;28;20053;-77
2022/10/13 03:26:01;;;;;;;1999.90;999.90;;;14.10;99.90;;;;;;5015929;28;20079;-84
2022/10/13 03:28:27;;;;;;;1999.90;999.90;;;14.20;99.90;;;;;;5015823;28;20108;-84
2022/10/13 03:31:07;;;;;;;1999.90;999.90;;;14.20;99.90;;;;;;5015435;28;20057;-77
2022/10/13 03:33:33;;;;;;;1999.90;999.90;;;14.20;99.90;;;;;;5031436;28;20025;-84
2022/10/13 03:36:01;;;;;;;1999.90;999.90;;;14.20;99.90;;;;;;5033042;28;20396;-77
2022/10/13 03:38:28;;;;;;;1999.90;999.90;;;14.20;99.90;;;;;;5033414;28;20022;-85
2022/10/13 03:40:54;;;;;;;1999.90;999.90;;;14.20;99.90;;;;;;5033541;28;20534;-77
2022/10/13 03:43:19;;;;;;;1999.90;999.90;;;14.20;99.90;;;;;;5033396;28;20026;-77
2022/10/13 03:45:57;;;;;;;1999.90;999.90;;;14.20;99.90;;;;;;5032952;28;20036;-77
2022/10/13 03:48:23;;;;;;;1999.90;999.90;;;14.30;99.90;;;;;;5036007;28;20034;-77
2022/10/13 03:50:49;;;;;;;1999.90;999.90;;;14.30;99.90;;;;;;5036904;28;20492;-81
2022/10/13 03:53:15;;;;;;;1999.90;999.90;;;14.30;99.90;;;;;;5035944;28;20036;-84
2022/10/13 03:55:40;;;;;;;1999.90;999.90;;;14.40;99.90;;;;;;5035140;28;20120;-84
2022/10/13 03:58:06;;;;;;;1999.90;999.90;;;14.30;99.90;;;;;;5036376;28;20485;-76
2022/10/13 04:00:34;;;;;;;1999.90;999.90;;;14.30;99.90;;;;;;5018176;28;20017;-85
2022/10/13 04:03:00;;;;;;;1999.90;999.90;;;14.30;99.90;;;;;;5036092;28;20029;-84
2022/10/13 04:05:26;;;;;;;1999.90;999.90;;;14.30;99.90;;;;;;5036073;28;20541;-76
2022/10/13 04:07:51;;;;;;;1999.90;999.90;;;14.20;99.90;;;;;;5018223;28;20481;-77
2022/10/13 04:10:17;;;;;;;1999.90;999.90;;;14.20;99.90;;;;;;5035696;28;20520;-77
2022/10/13 04:12:42;;;;;;;1999.90;999.90;;;14.20;99.90;;;;;;5024162;28;20121;-85
2022/10/13 04:15:09;;;;;;;1999.90;999.90;;;14.20;99.90;;;;;;5015770;28;20021;-84
2022/10/13 04:17:34;;;;;;;1999.90;999.90;;;14.20;99.90;;;;;;5015784;28;20040;-85
2022/10/13 04:20:00;;;;;;;1999.90;999.90;;;14.30;99.90;;;;;;5034912;28;20455;-77
2022/10/13 04:22:25;;;;;;;1999.90;999.90;;;14.20;99.90;;;;;;5034274;28;20047;-77
2022/10/13 04:24:51;;;;;;;1999.90;999.90;;;14.30;99.90;;;;;;5034674;28;20022;-78
2022/10/13 04:27:18;;;;;;;1999.90;999.90;;;14.30;99.90;;;;;;5033584;28;20048;-78
2022/10/13 04:29:44;;;;;;;1999.90;999.90;;;14.30;99.90;;;;;;5032386;28;20508;-84
2022/10/13 04:32:10;;;;;;;1999.90;999.90;;;14.30;99.90;;;;;;5034736;28;20025;-77
2022/10/13 04:34:35;;;;;;;1999.90;999.90;;;14.30;99.90;;;;;;5034464;28;20030;-77
2022/10/13 04:37:01;;;;;;;1999.90;999.90;;;14.30;99.90;;;;;;5034294;28;20082;-77
2022/10/13 04:39:27;;;;;;;1999.90;999.90;;;14.30;99.90;;;;;;5034070;28;20092;-77
2022/10/13 04:41:52;;;;;;;1999.90;999.90;;;14.40;99.90;;;;;;5034596;28;20472;-77
2022/10/13 04:44:18;;;;;;;1999.90;999.90;;;14.40;99.90;;;;;;5033293;28;20132;-84
2022/10/13 04:46:44;;;;;;;1999.90;999.90;;;14.40;99.90;;;;;;5034256;28;20040;-85
2022/10/13 04:49:09;;;;;;;1999.90;999.90;;;14.40;99.90;;;;;;5018999;28;20022;-77
2022/10/13 04:51:35;;;;;;;1999.90;999.90;;;14.40;99.90;;;;;;5016316;28;20025;-84
2022/10/13 04:54:01;;;;;;;1999.90;999.90;;;14.40;99.90;;;;;;5034458;28;20033;-84
2022/10/13 04:56:28;;;;;;;1999.90;999.90;;;14.40;99.90;;;;;;5015862;28;20080;-85
2022/10/13 04:58:53;;;;;;;1999.90;999.90;;;14.40;99.90;;;;;;5027967;28;20021;-84
2022/10/13 05:01:22;;;;;;;1999.90;999.90;;;14.30;99.90;;;;;;5029459;28;20022;-84
2022/10/13 05:03:58;;;;;;;1999.90;999.90;;;14.40;99.90;;;;;;5013995;28;20026;-85
2022/10/13 05:06:26;;;;;;;1999.90;999.90;;;14.40;99.90;;;;;;4996352;28;20034;-85
2022/10/13 05:08:53;;;;;;;1999.90;999.90;;;14.40;99.90;;;;;;5029598;28;20025;-84
2022/10/13 05:11:19;;;;;;;1999.90;999.90;;;14.40;99.90;;;;;;5033263;28;20037;-84
2022/10/13 05:13:45;;;;;;;1999.90;999.90;;;14.40;99.90;;;;;;5014301;28;20511;-85
2022/10/13 05:16:13;;;;;;;1999.90;999.90;;;14.40;99.90;;;;;;5013857;28;20469;-84
2022/10/13 05:18:39;;;;;;;1999.90;999.90;;;14.40;99.90;;;;;;5014028;28;20037;-77
2022/10/13 05:21:17;;;;;;;1999.90;999.90;;;14.40;99.90;;;;;;5023848;28;20033;-84
2022/10/13 05:23:44;;;;;;;1999.90;999.90;;;14.40;99.90;;;;;;5032952;28;20124;-84
2022/10/13 05:26:12;;;;;;;1999.90;999.90;;;14.40;99.90;;;;;;5033793;28;20022;-76
2022/10/13 05:28:38;;;;;;;1999.90;999.90;;;14.40;99.90;;;;;;5032804;28;20028;-76
2022/10/13 05:31:24;;;;;;;1999.90;999.90;;;14.40;99.90;;;;;;5033267;28;20078;-77
2022/10/13 05:33:50;;;;;;;1999.90;999.90;;;14.40;99.90;;;;;;5015464;28;20504;-83
2022/10/13 05:36:25;;;;;;;1999.90;999.90;;;14.40;99.90;;;;;;5031591;28;20017;-83
2022/10/13 05:38:56;;;;;;;1999.90;999.90;;;14.40;99.90;;;;;;5016114;28;20029;-84
2022/10/13 05:41:23;;;;;;;1999.90;999.90;;;14.40;99.90;;;;;;5045338;28;20025;-77
2022/10/13 05:43:52;;;;;;;1999.90;999.90;;;14.40;99.90;;;;;;5031699;28;20069;-83
2022/10/13 05:46:17;;;;;;;1999.90;999.90;;;14.50;99.90;;;;;;5014619;28;20037;-84
2022/10/13 05:48:43;;;;;;;1999.90;999.90;;;14.50;99.90;;;;;;5025918;28;20029;-77
2022/10/13 05:51:15;;;;;;;1999.90;999.90;;;14.50;99.90;;;;;;5034730;28;20064;-85
2022/10/13 05:53:45;;;;;;;1999.90;999.90;;;14.50;99.90;;;;;;5028953;28;20040;-77
2022/10/13 05:56:15;;;;;;;1999.90;999.90;;;14.50;99.90;;;;;;5033578;28;20028;-85
2022/10/13 05:58:46;;;;;;;1999.90;999.90;;;14.50;99.90;;;;;;5032726;28;20048;-85
2022/10/13 06:01:16;;;;;;;1999.90;999.90;;;14.50;99.90;;;;;;5034104;28;20438;-85
2022/10/13 06:03:43;;;;;;;1999.90;999.90;;;14.50;99.90;;;;;;5033460;28;20476;-85
2022/10/13 06:06:09;;;;;;;1999.90;999.90;;;14.50;99.90;;;;;;5014553;28;20536;-85
2022/10/13 06:08:35;;;;;;;1999.90;999.90;;;14.50;99.90;;;;;;5031915;28;20029;-77
2022/10/13 06:11:02;;;;;;;1999.90;999.90;;;14.50;99.90;;;;;;5031918;28;20377;-77
2022/10/13 06:13:28;;;;;;;1999.90;999.90;;;14.60;99.90;;;;;;5030693;28;20120;-85
2022/10/13 06:15:54;;;;;;;1999.90;999.90;;;14.50;99.90;;;;;;5032942;28;20564;-85
2022/10/13 06:18:19;;;;;;;1999.90;999.90;;;14.50;99.90;;;;;;5017222;28;20033;-86
2022/10/13 06:20:45;;;;;;;1999.90;999.90;;;14.50;99.90;;;;;;5029570;28;20076;-82
2022/10/13 06:23:10;;;;;;;1999.90;999.90;;;14.50;99.90;;;;;;5029243;28;20057;-77
2022/10/13 06:25:36;;;;;;;1999.90;999.90;;;14.60;99.90;;;;;;5032693;28;20017;-86
2022/10/13 06:28:02;;;;;;;1999.90;999.90;;;14.60;99.90;;;;;;5031273;28;20084;-77
2022/10/13 06:30:28;;;;;;;1999.90;999.90;;;14.60;99.90;;;;;;5032860;28;20021;-77
2022/10/13 06:32:54;;;;;;;1999.90;999.90;;;14.60;99.90;;;;;;5014727;28;20091;-77
2022/10/13 06:35:22;;;;;;;1999.90;999.90;;;14.60;99.90;;;;;;5012733;28;20022;-77
2022/10/13 06:37:48;;;;;;;1999.90;999.90;;;14.70;99.90;;;;;;5028967;28;20496;-85
2022/10/13 06:40:14;;;;;;;1999.90;999.90;;;14.70;99.90;;;;;;5029331;28;20089;-82
2022/10/13 06:42:40;;;;;;;1999.90;999.90;;;14.70;99.90;;;;;;5017607;28;20476;-85
2022/10/13 06:45:06;;;;;;;1999.90;999.90;;;14.70;99.90;;;;;;5024430;28;20034;-84
2022/10/13 06:47:31;;;;;;;1999.90;999.90;;;14.80;99.90;;;;;;5030454;28;20037;-78
2022/10/13 06:49:57;;;;;;;1999.90;999.90;;;14.80;99.90;;;;;;5018768;28;20667;-85
2022/10/13 06:52:23;;;;;;;1999.90;999.90;;;14.80;99.90;;;;;;5010795;28;20453;-85
2022/10/13 06:54:48;;;;;;;1999.90;999.90;;;14.90;99.90;;;;;;5012196;28;20030;-77
2022/10/13 06:57:14;;;;;;;1999.90;999.90;;;14.90;99.90;;;;;;5011428;28;20014;-78
2022/10/13 06:59:40;;;;;;;1999.90;999.90;;;14.90;99.90;;;;;;5010397;28;20052;-78
2022/10/13 07:02:06;;;;;;;1999.90;999.90;;;14.90;99.90;;;;;;5027084;28;20025;-77
2022/10/13 07:04:31;;;;;;;1999.90;999.90;;;14.90;99.90;;;;;;5031146;28;20025;-86
2022/10/13 07:06:57;;;;;;;1999.90;999.90;;;14.90;99.90;;;;;;5012800;28;20028;-85
2022/10/13 07:09:23;;;;;;;1999.90;999.90;;;14.90;99.90;;;;;;5029388;28;20045;-85
2022/10/13 07:11:49;;;;;;;1999.90;999.90;;;14.90;99.90;;;;;;5016228;28;20033;-78
2022/10/13 07:14:15;;;;;;;1999.90;999.90;;;15.00;99.90;;;;;;5004267;28;20025;-78
2022/10/13 07:16:40;;;;;;;1999.90;999.90;;;15.00;99.90;;;;;;5008245;28;20032;-87
2022/10/13 07:19:06;;;;;;;1999.90;999.90;;;15.10;99.90;;;;;;5029315;28;20036;-77
2022/10/13 07:21:32;;;;;;;1999.90;999.90;;;15.10;99.90;;;;;;5012461;28;20473;-86
2022/10/13 07:23:58;;;;;;;1999.90;999.90;;;15.10;99.90;;;;;;5018468;28;20029;-77
2022/10/13 07:26:23;;;;;;;1999.90;999.90;;;15.10;99.90;;;;;;4994500;28;20065;-86
2022/10/13 07:28:49;;;;;;;1999.90;999.90;;;15.10;99.90;;;;;;5025248;28;20064;-84
2022/10/13 07:31:17;;;;;;;1999.90;999.90;;;15.20;99.90;;;;;;5025919;28;20025;-78
2022/10/13 07:33:46;;;;;;;1999.90;999.90;;;15.30;99.90;;;;;;5020185;28;20045;-82
2022/10/13 07:36:13;;;;;;;1999.90;999.90;;;15.30;99.90;;;;;;5019148;28;20029;-88
2022/10/13 07:38:38;;;;;;;1999.90;999.90;;;15.30;99.90;;;;;;5026043;28;20025;-78
2022/10/13 07:41:06;;;;;;;1999.90;999.90;;;15.30;99.90;;;;;;5029376;28;20087;-86
2022/10/13 07:43:32;;;;;;;1999.90;999.90;;;15.30;99.90;;;;;;5031608;28;20045;-87
2022/10/13 07:45:59;;;;;;;1999.90;999.90;;;15.40;99.90;;;;;;5011097;28;20057;-85
2022/10/13 07:48:26;;;;;;;1999.90;999.90;;;15.40;99.90;;;;;;5024959;28;20588;-77
2022/10/13 07:50:51;;;;;;;1999.90;999.90;;;15.40;99.90;;;;;;5021360;28;20018;-80
2022/10/13 07:53:17;;;;;;;1999.90;999.90;;;15.50;99.90;;;;;;5017636;28;20409;-76
2022/10/13 07:55:43;;;;;;;1999.90;999.90;;;15.50;99.90;;;;;;5032632;28;20109;-78
2022/10/13 07:58:09;;;;;;;1999.90;999.90;;;15.40;99.90;;;;;;5031684;28;20511;-78
2022/10/13 08:00:35;;;;;;;1999.90;999.90;;;15.40;99.90;;;;;;5030922;28;20025;-83
2022/10/13 08:03:01;;;;;;;1999.90;999.90;;;15.50;99.90;;;;;;5011190;28;20433;-77
2022/10/13 08:05:27;;;;;;;1999.90;999.90;;;15.60;99.90;;;;;;5029000;28;20021;-76
2022/10/13 08:07:52;;;;;;;1999.90;999.90;;;15.70;99.90;;;;;;5030370;28;20044;-77
2022/10/13 08:10:18;;;;;;;1999.90;999.90;;;15.70;99.90;;;;;;5012044;28;20033;-82
2022/10/13 08:12:44;;;;;;;1999.90;999.90;;;15.70;99.90;;;;;;5024846;28;20018;-76
2022/10/13 08:15:10;;;;;;;1999.90;999.90;;;15.70;99.90;;;;;;5017894;28;20017;-83
2022/10/13 08:17:35;;;;;;;1999.90;999.90;;;15.70;99.90;;;;;;5022886;28;20105;-83
2022/10/13 08:20:03;;;;;;;1999.90;999.90;;;15.70;99.90;;;;;;5026097;28;20026;-82
2022/10/13 08:22:28;;;;;;;1999.90;999.90;;;15.80;99.90;;;;;;5012091;28;20057;-82
2022/10/13 08:24:57;;;;;;;1999.90;999.90;;;15.80;99.90;;;;;;5029950;28;20519;-82
2022/10/13 08:27:24;;;;;;;1999.90;999.90;;;15.80;99.90;;;;;;5009256;28;20034;-80
2022/10/13 08:29:50;;;;;;;1999.90;999.90;;;15.80;99.90;;;;;;5030024;28;20447;-80
2022/10/13 08:32:16;;;;;;;1999.90;999.90;;;15.90;99.90;;;;;;5040522;28;20030;-75
2022/10/13 08:34:42;;;;;;;1999.90;999.90;;;16.00;99.90;;;;;;5025132;28;20670;-76
2022/10/13 08:37:16;;;;;;;1999.90;999.90;;;16.10;99.90;;;;;;5023704;28;20041;-77
2022/10/13 08:39:42;;;;;;;1999.90;999.90;;;16.20;99.90;;;;;;5028571;28;20075;-77
2022/10/13 08:42:20;;;;;;;1999.90;999.90;;;16.30;99.90;;;;;;5024359;28;20034;-76
2022/10/13 08:45:01;;;;;;;1999.90;999.90;;;16.60;99.90;;;;;;5024957;28;20030;-77
2022/10/13 08:47:36;;;;;;;1999.90;999.90;;;16.70;99.90;;;;;;5007492;28;20372;-85
2022/10/13 08:50:09;;;;;;;1999.90;999.90;;;16.80;99.90;;;;;;5011395;28;20061;-86
2022/10/13 08:52:46;;;;;;;1999.90;999.90;;;16.80;99.90;;;;;;5024938;28;20026;-77
2022/10/13 08:55:21;;;;;;;1999.90;999.90;;;16.60;99.90;;;;;;5028976;28;20546;-78
2022/10/13 08:57:47;;;;;;;1999.90;999.90;;;16.60;99.90;;;;;;5028326;28;20451;-76
2022/10/13 09:00:13;;;;;;;1999.90;999.90;;;16.60;99.90;;;;;;5028601;28;20029;-80
2022/10/13 09:02:40;;;;;;;1999.90;999.90;;;16.60;99.90;;;;;;5012482;28;20033;-80
2022/10/13 09:05:34;;;;;;;1999.90;999.90;;;16.60;99.90;;;;;;5029761;28;20025;-80
2022/10/13 09:08:00;;;;;;;1999.90;999.90;;;16.60;99.90;;;;;;5014657;28;20040;-76
2022/10/13 09:10:26;;;;;;;1999.90;999.90;;;16.60;99.90;;;;;;5027650;28;20026;-79
2022/10/13 09:12:52;;;;;;;1999.90;999.90;;;16.50;99.90;;;;;;5026550;28;20435;-79
2022/10/13 09:15:18;;;;;;;1999.90;999.90;;;16.50;99.90;;;;;;5007314;28;20033;-79
2022/10/13 09:18:03;;;;;;;1999.90;999.90;;;16.50;99.90;;;;;;5030183;28;20026;-79
2022/10/13 09:20:29;;;;;;;1999.90;999.90;;;16.50;99.90;;;;;;5022252;28;20037;-75
2022/10/13 09:23:05;;;;;;;1999.90;999.90;;;16.40;99.90;;;;;;5023654;28;20563;-77
2022/10/13 09:26:04;;;;;;;1999.90;999.90;;;16.40;99.90;;;;;;5011725;28;20473;-78
2022/10/13 09:28:31;;;;;;;1999.90;999.90;;;16.50;99.90;;;;;;5040956;28;20395;-81
2022/10/13 09:31:12;;;;;;;1999.90;999.90;;;16.50;99.90;;;;;;5030158;28;20445;-82
2022/10/13 09:33:38;;;;;;;1999.90;999.90;;;16.60;99.90;;;;;;5028934;28;20017;-83
2022/10/13 09:36:09;;;;;;;1999.90;999.90;;;16.70;99.90;;;;;;5021516;28;20040;-78
2022/10/13 09:38:37;;;;;;;;;;;16.90;99.90;;;;;;5016150;28;20046;-78
2022/10/13 09:41:08;;;;;;;1999.90;999.90;;;16.90;99.90;;;;;;5024437;28;19909;-82
2022/10/13 09:43:42;;;;;;;1999.90;999.90;;;16.90;99.90;;;;;;5023835;28;20033;-80
2022/10/13 09:46:21;;;;;;;1999.90;999.90;;;17.00;99.90;;;;;;5028256;28;20111;-78
2022/10/13 09:48:51;;;;;;;1999.90;999.90;;;16.90;99.90;;;;;;5007524;28;20033;-79
2022/10/13 09:51:47;;;;;;;1999.90;999.90;;;16.80;99.90;;;;;;5028646;28;20484;-77
2022/10/13 09:54:44;;;;;;;1999.90;999.90;;;16.80;99.90;;;;;;4988562;28;20045;-85
2022/10/13 09:57:23;;;;;;;1999.90;999.90;;;16.80;99.90;;;;;;5028115;28;20056;-83
2022/10/13 09:59:51;;;;;;;1999.90;999.90;;;16.90;99.90;;;;;;5020344;28;20095;-85
2022/10/13 10:02:23;;;;;;;1999.90;999.90;;;16.90;99.90;;;;;;5029324;28;20033;-79
2022/10/13 10:04:52;;;;;;;1999.90;999.90;;;16.90;99.90;;;;;;5029536;28;20187;-79
2022/10/13 10:07:21;;;;;;;1999.90;999.90;;;16.90;99.90;;;;;;5030325;28;20361;-85
2022/10/13 10:09:54;;;;;;;1999.90;999.90;;;16.90;99.90;;;;;;5011802;28;20033;-85
2022/10/13 10:12:25;;;;;;;1999.90;999.90;;;16.90;99.90;;;;;;5029803;28;20439;-83
2022/10/13 10:14:51;;;;;;;1999.90;999.90;;;16.90;99.90;;;;;;5026779;28;20022;-79
2022/10/13 10:17:33;;;;;;;1999.90;999.90;;;16.90;99.90;;;;;;5010634;28;20029;-82
2022/10/13 10:20:23;;;;;;;1999.90;999.90;;;16.90;99.90;;;;;;5022677;28;20029;-80
2022/10/13 10:23:06;;;;;;;1999.90;999.90;;;16.80;99.90;;;;;;5029125;28;20496;-82
2022/10/13 10:25:44;;;;;;;;;;;16.80;99.90;;;;;;5030339;28;20025;-83
2022/10/13 10:28:40;;;;;;;1999.90;999.90;;;16.80;99.90;;;;;;5025084;28;20008;-78
2022/10/13 10:31:29;;;;;;;1999.90;999.90;;;16.90;99.90;;;;;;5028076;28;20034;-82
2022/10/13 10:34:25;;;;;;;1999.90;999.90;;;17.10;99.90;;;;;;5025040;28;20075;-78
2022/10/13 10:37:14;;;;;;;1999.90;999.90;;;17.10;99.90;;;;;;5022734;28;20845;-83
2022/10/13 10:39:43;;;;;;;1999.90;999.90;;;17.20;99.90;;;;;;5014321;28;20493;-78
2022/10/13 10:42:31;;;;;;;1999.90;999.90;;;17.20;99.90;;;;;;5029215;28;20025;-77
2022/10/13 10:45:02;;;;;;;1999.90;999.90;;;17.20;99.90;;;;;;5008465;28;20024;-78
2022/10/13 10:47:41;;;;;;;1999.90;999.90;;;17.30;99.90;;;;;;5029379;28;20499;-84
2022/10/13 10:50:12;;;;;;;1999.90;999.90;;;17.40;99.90;;;;;;5028756;28;20026;-87
2022/10/13 10:52:49;;;;;;;1999.90;999.90;;;17.30;99.90;;;;;;5029598;28;20037;-79
2022/10/13 10:55:45;;;;;;;1999.90;999.90;;;17.20;99.90;;;;;;5012042;28;20120;-78
2022/10/13 10:58:30;;;;;;;1999.90;999.90;;;17.20;99.90;;;;;;5022449;28;20052;-84
2022/10/13 11:01:25;;;;;;;1999.90;999.90;;;17.10;99.90;;;;;;5029751;28;20128;-84
2022/10/13 11:03:57;;;;;;;1999.90;999.90;;;17.10;99.90;;;;;;5010817;28;20051;-79
2022/10/13 11:06:25;;;;;;;1999.90;999.90;;;17.10;99.90;;;;;;5030597;28;20041;-78
2022/10/13 11:08:52;;;;;;;1999.90;999.90;;;17.10;99.90;;;;;;5032747;28;20531;-78
2022/10/13 11:11:24;;;;;;;1999.90;999.90;;;17.00;99.90;;;;;;5033078;28;20029;-79
2022/10/13 11:13:54;;;;;;;1999.90;999.90;;;17.00;99.90;;;;;;5021210;28;20033;-79
2022/10/13 11:16:39;;;;;;;1999.90;999.90;;;17.10;99.90;;;;;;5015600;28;20534;-82
2022/10/13 11:19:07;;;;;;;1999.90;999.90;;;17.10;99.90;;;;;;5031430;28;20018;-80
2022/10/13 11:21:53;;;;;;;1999.90;999.90;;;17.20;99.90;;;;;;5026802;28;20029;-80
2022/10/13 11:24:41;;;;;;;1999.90;999.90;;;17.40;99.90;;;;;;5001822;28;20145;-82
2022/10/13 11:27:06;;;;;;;1999.90;999.90;;;17.40;99.90;;;;;;5027786;28;20049;-82
2022/10/13 11:29:53;;;;;;;1999.90;999.90;;;17.40;99.90;;;;;;5030192;28;20018;-79
2022/10/13 11:32:25;;;;;;;1999.90;999.90;;;17.40;99.90;;;;;;5029901;28;20042;-79
2022/10/13 11:34:59;;;;;;;1999.90;999.90;;;17.40;99.90;;;;;;5029721;28;20029;-78
2022/10/13 11:37:46;;;;;;;1999.90;999.90;;;17.40;99.90;;;;;;5020336;28;20151;-78
2022/10/13 11:40:59;;;;;;;1999.90;999.90;;;17.50;99.90;;;;;;5028796;28;20500;-82
2022/10/13 11:43:44;;;;;;;1999.90;999.90;;;17.30;99.90;;;;;;4947206;29;20028;-81
2022/10/13 11:46:34;;;;;;;1999.90;999.90;;;17.20;99.90;;;;;;4938010;29;20522;-77
2022/10/13 11:49:03;;;;;;;1999.90;999.90;;;17.20;99.90;;;;;;4938344;29;20044;-79
2022/10/13 11:51:32;;;;;;;1999.90;999.90;;;17.30;99.90;;;;;;4931485;29;20067;-82
2022/10/13 11:54:08;;;;;;;1999.90;999.90;;;17.20;99.90;;;;;;4941092;29;20067;-82
2022/10/13 11:56:55;;;;;;;1999.90;999.90;;;17.50;99.90;;;;;;4946893;29;20031;-82
2022/10/13 11:59:33;;;;;;;1999.90;999.90;;;17.50;99.90;;;;;;4951894;29;20534;-77
2022/10/13 12:02:06;;;;;;;1999.90;999.90;;;17.60;99.90;;;;;;4926274;29;20032;-82
2022/10/13 12:04:31;;;;;;;1999.90;999.90;;;17.50;99.90;;;;;;4937509;29;20618;-84
2022/10/13 12:07:00;;;;;;;1999.90;999.90;;;17.40;99.90;;;;;;4929777;29;20040;-82
2022/10/13 12:09:28;;;;;;;1999.90;999.90;;;17.30;99.90;;;;;;4923179;29;20067;-76
2022/10/13 12:12:03;;;;;;;1999.90;999.90;;;17.30;99.90;;;;;;4921974;29;20489;-77
2022/10/13 12:14:34;;;;;;;1999.90;999.90;;;17.40;99.90;;;;;;4926208;29;20063;-76
2022/10/13 12:17:01;;;;;;;1999.90;999.90;;;17.50;99.90;;;;;;4960792;28;20111;-77
2022/10/13 12:19:29;;;;;;;1999.90;999.90;;;17.50;99.90;;;;;;5029105;28;20030;-82